createdAt,value
2019-01-30T00:00:04.095Z,1000.4
2019-01-30T00:01:03.571Z,1000.5
2019-01-30T00:02:02.994Z,1000.5
2019-01-30T00:03:03.553Z,1000.4
2019-01-30T00:04:03.610Z,1000.5
2019-01-30T00:05:03.813Z,1000.4
2019-01-30T00:06:03.359Z,1000.4
2019-01-30T00:07:03.365Z,1000.4
2019-01-30T00:08:03.715Z,1000.2
2019-01-30T00:09:03.578Z,1000.3
2019-01-30T00:10:03.020Z,1000.2
2019-01-30T00:11:03.189Z,1000.3
2019-01-30T00:12:03.643Z,1000.3
2019-01-30T00:13:03.276Z,1000.2
2019-01-30T00:14:03.594Z,1000.2
2019-01-30T00:15:03.049Z,1000.2
2019-01-30T00:16:02.864Z,1000.2
2019-01-30T00:17:03.645Z,1000.2
2019-01-30T00:18:03.387Z,1000
2019-01-30T00:19:04.427Z,1000.1
2019-01-30T00:20:03.849Z,1000.1
2019-01-30T00:21:03.180Z,1000.1
2019-01-30T00:22:03.139Z,1000.1
2019-01-30T00:23:03.704Z,1000
2019-01-30T00:24:02.937Z,1000.1
2019-01-30T00:25:03.627Z,1000
2019-01-30T00:26:03.141Z,1000.1
2019-01-30T00:27:03.598Z,1000
2019-01-30T00:28:03.605Z,999.8
2019-01-30T00:29:03.007Z,1000
2019-01-30T00:30:04.787Z,1000
2019-01-30T00:31:04.878Z,999.8
2019-01-30T00:32:02.888Z,999.8
2019-01-30T00:33:03.281Z,999.8
2019-01-30T00:34:03.352Z,999.8
2019-01-30T00:35:03.089Z,999.8
2019-01-30T00:36:04.163Z,999.6
2019-01-30T00:37:03.319Z,999.7
2019-01-30T00:38:03.206Z,999.7
2019-01-30T00:39:03.369Z,999.7
2019-01-30T00:40:03.240Z,999.7
2019-01-30T00:41:03.177Z,999.6
2019-01-30T00:42:03.357Z,999.6
2019-01-30T00:43:03.177Z,999.6
2019-01-30T00:44:03.622Z,999.7
2019-01-30T00:45:03.501Z,999.7
2019-01-30T00:46:03.279Z,999.6
2019-01-30T00:47:03.809Z,999.6
2019-01-30T00:48:03.659Z,999.7
2019-01-30T00:49:03.641Z,999.7
2019-01-30T00:50:02.622Z,999.6
2019-01-30T00:51:03.536Z,999.6
2019-01-30T00:52:03.699Z,999.5
2019-01-30T00:53:03.321Z,999.6
2019-01-30T00:54:03.675Z,999.5
2019-01-30T00:55:03.136Z,999.5
2019-01-30T00:56:03.437Z,999.5
2019-01-30T00:57:03.316Z,999.4
2019-01-30T00:58:03.229Z,999.5
2019-01-30T00:59:03.316Z,999.4
2019-01-30T01:00:14.917Z,999.5
2019-01-30T01:01:03.597Z,999.5
2019-01-30T01:02:03.831Z,999.4
2019-01-30T01:03:03.095Z,999.4
2019-01-30T01:04:03.092Z,999.4
2019-01-30T01:05:03.056Z,999.3
2019-01-30T01:06:03.579Z,999.4
2019-01-30T01:07:03.445Z,999.3
2019-01-30T01:08:03.795Z,999.3
2019-01-30T01:09:03.729Z,999.3
2019-01-30T01:10:02.917Z,999.3
2019-01-30T01:11:02.989Z,999.3
2019-01-30T01:12:02.791Z,999.2
2019-01-30T01:13:03.723Z,999.3
2019-01-30T01:14:03.596Z,999.3
2019-01-30T01:15:03.511Z,999.3
2019-01-30T01:16:03.499Z,999.1
2019-01-30T01:17:02.999Z,999.2
2019-01-30T01:18:03.771Z,999.2
2019-01-30T01:19:03.585Z,999.3
2019-01-30T01:20:03.670Z,999.3
2019-01-30T01:21:03.123Z,999.3
2019-01-30T01:22:03.361Z,999.3
2019-01-30T01:23:03.281Z,999.2
2019-01-30T01:24:03.173Z,999.2
2019-01-30T01:25:02.942Z,999.3
2019-01-30T01:26:02.784Z,999.2
2019-01-30T01:27:03.655Z,999.2
2019-01-30T01:28:03.563Z,999.2
2019-01-30T01:29:02.874Z,999.1
2019-01-30T01:30:02.402Z,999.1
2019-01-30T01:31:03.712Z,999.1
2019-01-30T01:32:03.730Z,999.2
2019-01-30T01:33:03.580Z,999.2
2019-01-30T01:34:03.397Z,999.2
2019-01-30T01:35:03.722Z,999.1
2019-01-30T01:36:03.323Z,999.1
2019-01-30T01:37:01.948Z,999.1
2019-01-30T01:38:03.735Z,999.1
2019-01-30T01:39:03.019Z,999
2019-01-30T01:40:03.391Z,999.1
2019-01-30T01:41:03.373Z,999.1
2019-01-30T01:42:03.699Z,999.1
2019-01-30T01:43:03.891Z,999
2019-01-30T01:44:03.622Z,999
2019-01-30T01:45:03.160Z,999.1
2019-01-30T01:46:02.964Z,999
2019-01-30T01:47:03.397Z,999
2019-01-30T01:48:03.451Z,999
2019-01-30T01:49:03.157Z,999
2019-01-30T01:50:03.354Z,999
2019-01-30T01:51:03.767Z,998.9
2019-01-30T01:52:02.936Z,998.9
2019-01-30T01:53:03.414Z,998.9
2019-01-30T01:54:03.574Z,998.9
2019-01-30T01:55:03.148Z,998.8
2019-01-30T01:56:03.747Z,998.9
2019-01-30T01:57:03.576Z,998.9
2019-01-30T01:58:03.343Z,998.8
2019-01-30T01:59:03.037Z,998.7
2019-01-30T02:00:03.837Z,998.8
2019-01-30T02:01:02.816Z,998.7
2019-01-30T02:02:02.399Z,998.7
2019-01-30T02:03:03.173Z,998.6
2019-01-30T02:04:02.998Z,998.6
2019-01-30T02:05:03.391Z,998.6
2019-01-30T02:06:03.550Z,998.6
2019-01-30T02:07:03.829Z,998.6
2019-01-30T02:08:03.301Z,998.6
2019-01-30T02:09:03.716Z,998.4
2019-01-30T02:10:04.011Z,998.6
2019-01-30T02:11:03.006Z,998.4
2019-01-30T02:12:03.509Z,998.4
2019-01-30T02:13:03.677Z,998.5
2019-01-30T02:14:03.385Z,998.5
2019-01-30T02:15:03.619Z,998.5
2019-01-30T02:16:03.544Z,998.5
2019-01-30T02:17:03.592Z,998.5
2019-01-30T02:18:03.452Z,998.5
2019-01-30T02:19:03.533Z,998.4
2019-01-30T02:20:03.504Z,998.3
2019-01-30T02:21:03.878Z,998.3
2019-01-30T02:22:02.640Z,998.4
2019-01-30T02:23:03.754Z,998.3
2019-01-30T02:24:03.736Z,998.4
2019-01-30T02:25:03.232Z,998.4
2019-01-30T02:26:03.228Z,998.3
2019-01-30T02:27:03.394Z,998.3
2019-01-30T02:28:03.210Z,998.3
2019-01-30T02:29:03.469Z,998.3
2019-01-30T02:30:03.580Z,998.3
2019-01-30T02:31:03.502Z,998.3
2019-01-30T02:32:03.275Z,998.2
2019-01-30T02:33:03.427Z,998.3
2019-01-30T02:34:03.275Z,998.3
2019-01-30T02:35:03.161Z,998.2
2019-01-30T02:36:03.186Z,998.3
2019-01-30T02:37:03.620Z,998.2
2019-01-30T02:38:03.342Z,998.1
2019-01-30T02:39:03.731Z,998.2
2019-01-30T02:40:03.434Z,998.3
2019-01-30T02:41:03.749Z,998.2
2019-01-30T02:42:03.231Z,998.2
2019-01-30T02:43:03.195Z,998.1
2019-01-30T02:44:02.920Z,998.1
2019-01-30T02:45:02.985Z,998.3
2019-01-30T02:46:03.539Z,998.1
2019-01-30T02:47:03.487Z,998.2
2019-01-30T02:48:03.574Z,998.1
2019-01-30T02:49:03.606Z,998.2
2019-01-30T02:50:02.998Z,998.2
2019-01-30T02:51:03.290Z,998.1
2019-01-30T02:52:03.255Z,998.2
2019-01-30T02:53:02.902Z,998.1
2019-01-30T02:54:03.575Z,998.1
2019-01-30T02:55:03.851Z,998.2
2019-01-30T02:56:03.441Z,998.1
2019-01-30T02:57:03.815Z,998.2
2019-01-30T02:58:03.275Z,998.2
2019-01-30T02:59:03.443Z,998.2
2019-01-30T03:00:03.499Z,998.2
2019-01-30T03:01:02.530Z,998.3
2019-01-30T03:02:03.698Z,998.2
2019-01-30T03:03:02.768Z,998.3
2019-01-30T03:04:02.690Z,998.3
2019-01-30T03:05:03.377Z,998.3
2019-01-30T03:06:03.555Z,998.2
2019-01-30T03:07:02.797Z,998.3
2019-01-30T03:08:02.764Z,998.3
2019-01-30T03:09:02.820Z,998.3
2019-01-30T03:10:03.885Z,998.2
2019-01-30T03:11:03.503Z,998.2
2019-01-30T03:12:03.099Z,998.3
2019-01-30T03:13:03.242Z,998.2
2019-01-30T03:14:03.779Z,998.4
2019-01-30T03:15:03.223Z,998.4
2019-01-30T03:16:03.492Z,998.2
2019-01-30T03:17:03.409Z,998.3
2019-01-30T03:18:03.144Z,998.3
2019-01-30T03:19:03.727Z,998.2
2019-01-30T03:20:03.905Z,998.3
2019-01-30T03:21:02.962Z,998.3
2019-01-30T03:22:03.124Z,998.3
2019-01-30T03:23:03.147Z,998.3
2019-01-30T03:24:03.205Z,998.3
2019-01-30T03:25:03.205Z,998.3
2019-01-30T03:26:03.025Z,998.3
2019-01-30T03:27:02.933Z,998.3
2019-01-30T03:28:02.778Z,998.3
2019-01-30T03:29:03.597Z,998.2
2019-01-30T03:30:03.012Z,998.2
2019-01-30T03:31:19.947Z,998.2
2019-01-30T03:32:03.510Z,998.2
2019-01-30T03:33:03.296Z,998.1
2019-01-30T03:34:03.633Z,998.1
2019-01-30T03:35:03.596Z,998.2
2019-01-30T03:36:02.886Z,998.2
2019-01-30T03:37:03.248Z,998.1
2019-01-30T03:38:03.910Z,998.1
2019-01-30T03:39:03.895Z,998.1
2019-01-30T03:40:03.927Z,998.1
2019-01-30T03:41:03.792Z,998.1
2019-01-30T03:42:02.914Z,998
2019-01-30T03:43:02.910Z,998.1
2019-01-30T03:44:03.879Z,998
2019-01-30T03:45:03.102Z,998.1
2019-01-30T03:46:03.857Z,998.2
2019-01-30T03:47:03.566Z,998.2
2019-01-30T03:48:03.374Z,998.2
2019-01-30T03:49:03.231Z,998
2019-01-30T03:50:03.567Z,998
2019-01-30T03:51:03.589Z,998
2019-01-30T03:52:02.303Z,998
2019-01-30T03:53:03.261Z,998.1
2019-01-30T03:54:03.108Z,998.1
2019-01-30T03:55:03.427Z,998.2
2019-01-30T03:56:03.167Z,998.1
2019-01-30T03:57:03.689Z,998.1
2019-01-30T03:58:03.225Z,998.1
2019-01-30T03:59:03.684Z,998.1
2019-01-30T04:00:03.688Z,998.1
2019-01-30T04:01:03.679Z,998
2019-01-30T04:02:03.557Z,998.1
2019-01-30T04:03:03.025Z,998.1
2019-01-30T04:04:03.716Z,998.1
2019-01-30T04:05:04.150Z,998.1
2019-01-30T04:06:03.094Z,998.1
2019-01-30T04:07:03.210Z,998.1
2019-01-30T04:08:03.596Z,998.1
2019-01-30T04:09:03.484Z,998.2
2019-01-30T04:10:02.844Z,998.1
2019-01-30T04:11:03.300Z,998.1
2019-01-30T04:12:03.550Z,998.1
2019-01-30T04:13:02.806Z,998.1
2019-01-30T04:14:03.251Z,998.1
2019-01-30T04:15:04.136Z,998.1
2019-01-30T04:16:03.674Z,998.1
2019-01-30T04:17:03.649Z,998
2019-01-30T04:18:03.570Z,998.1
2019-01-30T04:19:02.923Z,998.1
2019-01-30T04:20:03.865Z,998
2019-01-30T04:21:03.732Z,998.1
2019-01-30T04:22:03.009Z,998.1
2019-01-30T04:23:03.696Z,998.1
2019-01-30T04:24:03.844Z,998
2019-01-30T04:25:03.672Z,998
2019-01-30T04:26:03.237Z,998
2019-01-30T04:27:03.536Z,998.1
2019-01-30T04:28:03.417Z,997.9
2019-01-30T04:29:03.211Z,998
2019-01-30T04:30:03.102Z,997.9
2019-01-30T04:31:03.658Z,998
2019-01-30T04:32:03.561Z,997.9
2019-01-30T04:33:03.637Z,997.8
2019-01-30T04:34:02.989Z,997.9
2019-01-30T04:35:03.294Z,997.9
2019-01-30T04:36:03.702Z,998
2019-01-30T04:37:03.247Z,997.8
2019-01-30T04:38:02.790Z,997.9
2019-01-30T04:39:03.589Z,997.9
2019-01-30T04:40:03.563Z,997.9
2019-01-30T04:41:03.051Z,997.9
2019-01-30T04:42:03.814Z,997.9
2019-01-30T04:43:03.496Z,997.9
2019-01-30T04:44:01.880Z,997.8
2019-01-30T04:45:03.288Z,997.8
2019-01-30T04:46:03.691Z,997.9
2019-01-30T04:47:03.008Z,997.9
2019-01-30T04:48:03.500Z,997.8
2019-01-30T04:49:03.555Z,997.8
2019-01-30T04:50:02.973Z,997.8
2019-01-30T04:51:02.897Z,997.8
2019-01-30T04:52:02.904Z,997.8
2019-01-30T04:53:03.488Z,997.8
2019-01-30T04:54:02.972Z,997.7
2019-01-30T04:55:03.078Z,997.8
2019-01-30T04:56:03.355Z,997.8
2019-01-30T04:57:03.168Z,997.8
2019-01-30T04:58:03.615Z,997.8
2019-01-30T04:59:02.845Z,997.8
2019-01-30T05:00:03.599Z,997.8
2019-01-30T05:01:02.659Z,997.8
2019-01-30T05:02:03.837Z,997.8
2019-01-30T05:03:03.534Z,997.8
2019-01-30T05:04:04.482Z,997.8
2019-01-30T05:05:03.265Z,997.8
2019-01-30T05:06:03.932Z,997.8
2019-01-30T05:07:03.169Z,997.9
2019-01-30T05:08:03.051Z,997.8
2019-01-30T05:09:03.591Z,997.8
2019-01-30T05:10:03.098Z,997.8
2019-01-30T05:11:03.632Z,997.7
2019-01-30T05:12:03.672Z,997.9
2019-01-30T05:13:03.176Z,997.7
2019-01-30T05:14:03.007Z,997.7
2019-01-30T05:15:03.462Z,997.8
2019-01-30T05:16:03.353Z,997.7
2019-01-30T05:17:03.221Z,997.7
2019-01-30T05:18:03.870Z,997.7
2019-01-30T05:19:03.845Z,997.6
2019-01-30T05:20:03.906Z,997.6
2019-01-30T05:21:03.763Z,997.6
2019-01-30T05:22:03.579Z,997.6
2019-01-30T05:23:03.189Z,997.6
2019-01-30T05:24:03.787Z,997.6
2019-01-30T05:25:03.811Z,997.6
2019-01-30T05:26:03.317Z,997.6
2019-01-30T05:27:03.762Z,997.6
2019-01-30T05:28:03.616Z,997.6
2019-01-30T05:29:03.790Z,997.7
2019-01-30T05:30:03.023Z,997.6
2019-01-30T05:31:03.247Z,997.7
2019-01-30T05:32:03.169Z,997.7
2019-01-30T05:33:03.596Z,997.7
2019-01-30T05:34:02.977Z,997.6
2019-01-30T05:35:03.351Z,997.6
2019-01-30T05:36:03.035Z,997.6
2019-01-30T05:37:03.641Z,997.6
2019-01-30T05:38:03.532Z,997.6
2019-01-30T05:39:03.759Z,997.5
2019-01-30T05:40:03.822Z,997.5
2019-01-30T05:41:03.433Z,997.6
2019-01-30T05:42:03.069Z,997.6
2019-01-30T05:43:03.824Z,997.6
2019-01-30T05:44:02.927Z,997.4
2019-01-30T05:45:03.052Z,997.6
2019-01-30T05:46:02.665Z,997.6
2019-01-30T05:47:03.453Z,997.4
2019-01-30T05:48:03.367Z,997.4
2019-01-30T05:49:03.538Z,997.4
2019-01-30T05:50:03.288Z,997.6
2019-01-30T05:51:03.317Z,997.4
2019-01-30T05:52:03.128Z,997.4
2019-01-30T05:53:03.331Z,997.4
2019-01-30T05:54:03.277Z,997.4
2019-01-30T05:55:03.823Z,997.6
2019-01-30T05:56:03.788Z,997.6
2019-01-30T05:57:03.365Z,997.6
2019-01-30T05:58:03.470Z,997.6
2019-01-30T05:59:03.526Z,997.6
2019-01-30T06:00:03.369Z,997.6
2019-01-30T06:01:02.884Z,997.4
2019-01-30T06:02:12.829Z,997.5
2019-01-30T06:03:02.666Z,997.7
2019-01-30T06:04:03.198Z,997.6
2019-01-30T06:05:03.037Z,997.6
2019-01-30T06:06:03.515Z,997.6
2019-01-30T06:07:03.615Z,997.7
2019-01-30T06:08:03.735Z,997.7
2019-01-30T06:09:03.732Z,997.6
2019-01-30T06:10:03.031Z,997.6
2019-01-30T06:11:03.013Z,997.6
2019-01-30T06:12:03.426Z,997.7
2019-01-30T06:13:02.676Z,997.7
2019-01-30T06:14:03.154Z,997.6
2019-01-30T06:15:03.362Z,997.6
2019-01-30T06:16:02.806Z,997.7
2019-01-30T06:17:03.064Z,997.6
2019-01-30T06:18:03.750Z,997.6
2019-01-30T06:19:03.236Z,997.7
2019-01-30T06:20:02.994Z,997.7
2019-01-30T06:21:04.063Z,997.7
2019-01-30T06:22:03.065Z,997.6
2019-01-30T06:23:03.273Z,997.6
2019-01-30T06:24:03.121Z,997.6
2019-01-30T06:25:03.243Z,997.7
2019-01-30T06:26:02.917Z,997.7
2019-01-30T06:27:03.356Z,997.7
2019-01-30T06:28:03.658Z,997.7
2019-01-30T06:29:03.873Z,997.7
2019-01-30T06:30:03.668Z,997.7
2019-01-30T06:31:03.134Z,997.7
2019-01-30T06:32:03.464Z,997.8
2019-01-30T06:33:03.527Z,997.7
2019-01-30T06:34:03.626Z,997.7
2019-01-30T06:35:02.878Z,997.7
2019-01-30T06:36:02.872Z,997.7
2019-01-30T06:37:03.063Z,997.7
2019-01-30T06:38:03.660Z,997.7
2019-01-30T06:39:02.935Z,997.7
2019-01-30T06:40:02.688Z,997.6
2019-01-30T06:41:03.395Z,997.6
2019-01-30T06:42:03.217Z,997.5
2019-01-30T06:43:04.152Z,997.5
2019-01-30T06:44:03.632Z,997.6
2019-01-30T06:45:03.548Z,997.5
2019-01-30T06:46:03.381Z,997.5
2019-01-30T06:47:03.042Z,997.5
2019-01-30T06:48:03.635Z,997.5
2019-01-30T06:49:02.978Z,997.7
2019-01-30T06:50:03.553Z,997.6
2019-01-30T06:51:03.120Z,997.6
2019-01-30T06:52:03.328Z,997.7
2019-01-30T06:53:03.605Z,997.6
2019-01-30T06:54:03.630Z,997.6
2019-01-30T06:55:03.075Z,997.7
2019-01-30T06:56:03.851Z,997.7
2019-01-30T06:57:02.843Z,997.6
2019-01-30T06:58:03.820Z,997.7
2019-01-30T06:59:03.100Z,997.7
2019-01-30T07:00:04.243Z,997.7
2019-01-30T07:01:02.912Z,997.6
2019-01-30T07:02:03.483Z,997.7
2019-01-30T07:03:02.943Z,997.6
2019-01-30T07:04:03.295Z,997.7
2019-01-30T07:05:02.988Z,997.6
2019-01-30T07:06:02.865Z,997.5
2019-01-30T07:07:02.981Z,997.6
2019-01-30T07:08:03.627Z,997.5
2019-01-30T07:09:03.506Z,997.6
2019-01-30T07:10:03.476Z,997.6
2019-01-30T07:11:11.290Z,997.6
2019-01-30T07:12:03.871Z,997.7
2019-01-30T07:13:03.806Z,997.4
2019-01-30T07:14:03.392Z,997.7
2019-01-30T07:15:03.511Z,997.5
2019-01-30T07:16:03.239Z,997.5
2019-01-30T07:17:03.110Z,997.7
2019-01-30T07:18:03.322Z,997.6
2019-01-30T07:19:03.643Z,997.6
2019-01-30T07:20:03.575Z,997.7
2019-01-30T07:21:02.856Z,997.6
2019-01-30T07:22:03.250Z,997.6
2019-01-30T07:23:03.767Z,997.5
2019-01-30T07:24:03.538Z,997.4
2019-01-30T07:25:03.760Z,997.5
2019-01-30T07:26:03.879Z,997.5
2019-01-30T07:27:03.681Z,997.5
2019-01-30T07:28:02.998Z,997.5
2019-01-30T07:29:03.252Z,997.5
2019-01-30T07:30:03.782Z,997.5
2019-01-30T07:31:03.221Z,997.5
2019-01-30T07:32:03.104Z,997.4
2019-01-30T07:33:03.886Z,997.5
2019-01-30T07:34:03.744Z,997.5
2019-01-30T07:35:03.869Z,997.5
2019-01-30T07:36:02.809Z,997.5
2019-01-30T07:37:03.134Z,997.3
2019-01-30T07:38:03.364Z,997.3
2019-01-30T07:39:03.437Z,997.4
2019-01-30T07:40:03.198Z,997.2
2019-01-30T07:41:03.485Z,997.2
2019-01-30T07:42:03.636Z,997.1
2019-01-30T07:43:03.244Z,997.3
2019-01-30T07:44:02.969Z,997.3
2019-01-30T07:45:03.052Z,997.3
2019-01-30T07:46:02.975Z,997.4
2019-01-30T07:47:03.671Z,997.2
2019-01-30T07:48:03.797Z,997.2
2019-01-30T07:49:03.061Z,997.4
2019-01-30T07:50:03.904Z,997.4
2019-01-30T07:51:03.762Z,997.3
2019-01-30T07:52:03.109Z,997.3
2019-01-30T07:53:03.087Z,997.4
2019-01-30T07:54:03.184Z,997.3
2019-01-30T07:55:03.570Z,997.3
2019-01-30T07:56:03.781Z,997.3
2019-01-30T07:57:03.248Z,997.3
2019-01-30T07:58:06.244Z,997.3
2019-01-30T07:59:03.336Z,997.3
2019-01-30T08:00:03.776Z,997.3
2019-01-30T08:01:02.767Z,997.4
2019-01-30T08:02:03.725Z,997.3
2019-01-30T08:03:03.246Z,997.4
2019-01-30T08:04:03.662Z,997.2
2019-01-30T08:05:03.967Z,997.3
2019-01-30T08:06:03.076Z,997.3
2019-01-30T08:07:03.647Z,997.2
2019-01-30T08:08:02.944Z,997.3
2019-01-30T08:09:03.845Z,997.4
2019-01-30T08:10:03.188Z,997.4
2019-01-30T08:11:03.690Z,997.4
2019-01-30T08:12:03.215Z,997.4
2019-01-30T08:13:03.151Z,997.4
2019-01-30T08:14:03.734Z,997.4
2019-01-30T08:15:03.973Z,997.5
2019-01-30T08:16:03.739Z,997.5
2019-01-30T08:17:03.346Z,997.4
2019-01-30T08:18:03.202Z,997.5
2019-01-30T08:19:03.082Z,997.5
2019-01-30T08:20:03.477Z,997.5
2019-01-30T08:21:03.791Z,997.3
2019-01-30T08:22:02.947Z,997.6
2019-01-30T08:23:04.033Z,997.6
2019-01-30T08:24:04.373Z,997.4
2019-01-30T08:25:04.456Z,997.6
2019-01-30T08:26:04.425Z,997.4
2019-01-30T08:27:04.600Z,997.6
2019-01-30T08:28:04.042Z,997.4
2019-01-30T08:29:02.960Z,997.4
2019-01-30T08:30:04.555Z,997.4
2019-01-30T08:31:04.831Z,997.3
2019-01-30T08:32:03.895Z,997.4
2019-01-30T08:33:06.914Z,997.3
2019-01-30T08:34:03.305Z,997.3
2019-01-30T08:35:03.526Z,997.2
2019-01-30T08:36:03.881Z,997.4
2019-01-30T08:37:02.977Z,997.4
2019-01-30T08:38:03.248Z,997.4
2019-01-30T08:39:02.980Z,997.4
2019-01-30T08:40:03.451Z,997.4
2019-01-30T08:41:03.602Z,997.4
2019-01-30T08:42:03.517Z,997.5
2019-01-30T08:43:03.793Z,997.5
2019-01-30T08:44:03.136Z,997.5
2019-01-30T08:45:03.287Z,997.4
2019-01-30T08:46:03.917Z,997.5
2019-01-30T08:47:03.451Z,997.5
2019-01-30T08:48:03.271Z,997.5
2019-01-30T08:49:03.214Z,997.5
2019-01-30T08:50:03.476Z,997.6
2019-01-30T08:51:03.053Z,997.6
2019-01-30T08:52:03.104Z,997.6
2019-01-30T08:53:03.870Z,997.6
2019-01-30T08:54:02.864Z,997.7
2019-01-30T08:55:03.183Z,997.7
2019-01-30T08:56:03.039Z,997.6
2019-01-30T08:57:03.296Z,997.7
2019-01-30T08:58:03.365Z,997.6
2019-01-30T08:59:06.330Z,997.7
2019-01-30T09:00:03.844Z,997.7
2019-01-30T09:01:03.096Z,997.7
2019-01-30T09:02:03.419Z,997.7
2019-01-30T09:03:03.127Z,997.6
2019-01-30T09:04:03.494Z,997.6
2019-01-30T09:05:03.765Z,997.6
2019-01-30T09:06:03.887Z,997.6
2019-01-30T09:07:03.007Z,997.6
2019-01-30T09:08:03.668Z,997.6
2019-01-30T09:09:03.494Z,997.8
2019-01-30T09:10:03.658Z,997.8
2019-01-30T09:11:03.727Z,997.8
2019-01-30T09:12:02.969Z,997.8
2019-01-30T09:13:03.366Z,997.8
2019-01-30T09:14:03.274Z,997.7
2019-01-30T09:15:03.492Z,997.7
2019-01-30T09:16:03.086Z,997.7
2019-01-30T09:17:08.989Z,997.7
2019-01-30T09:18:03.232Z,997.7
2019-01-30T09:19:03.829Z,997.7
2019-01-30T09:20:03.124Z,997.7
2019-01-30T09:21:03.410Z,997.7
2019-01-30T09:22:03.136Z,997.7
2019-01-30T09:23:03.683Z,997.7
2019-01-30T09:24:03.529Z,997.7
2019-01-30T09:25:03.361Z,997.7
2019-01-30T09:26:03.777Z,997.7
2019-01-30T09:27:02.911Z,997.7
2019-01-30T09:28:03.263Z,997.7
2019-01-30T09:29:03.386Z,997.7
2019-01-30T09:30:03.228Z,997.7
2019-01-30T09:31:03.325Z,997.7
2019-01-30T09:32:03.175Z,997.7
2019-01-30T09:33:03.567Z,997.7
2019-01-30T09:34:03.844Z,997.7
2019-01-30T09:35:03.950Z,997.7
2019-01-30T09:36:02.992Z,997.7
2019-01-30T09:37:02.914Z,997.7
2019-01-30T09:38:03.029Z,997.7
2019-01-30T09:39:03.125Z,997.7
2019-01-30T09:40:03.230Z,997.7
2019-01-30T09:41:03.698Z,997.7
2019-01-30T09:42:02.937Z,997.7
2019-01-30T09:43:03.549Z,997.7
2019-01-30T09:44:03.101Z,997.7
2019-01-30T09:45:03.537Z,997.7
2019-01-30T09:46:03.428Z,997.7
2019-01-30T09:47:02.893Z,997.7
2019-01-30T09:48:03.102Z,997.7
2019-01-30T09:49:03.415Z,997.7
2019-01-30T09:50:03.964Z,997.7
2019-01-30T09:51:03.914Z,997.7
2019-01-30T09:52:03.242Z,997.7
2019-01-30T09:53:03.163Z,998
2019-01-30T09:54:03.655Z,998.1
2019-01-30T09:55:03.364Z,998.1
2019-01-30T09:56:03.752Z,998.1
2019-01-30T09:57:03.152Z,998.1
2019-01-30T09:58:03.632Z,998.1
2019-01-30T09:59:03.601Z,998.1
2019-01-30T10:00:03.429Z,998.1
2019-01-30T10:01:03.312Z,998.1
2019-01-30T10:02:03.034Z,998.1
2019-01-30T10:03:02.981Z,998.1
2019-01-30T10:04:03.387Z,998.1
2019-01-30T10:05:02.995Z,998.1
2019-01-30T10:06:02.959Z,998.1
2019-01-30T10:07:03.676Z,998.1
2019-01-30T10:08:03.094Z,998.1
2019-01-30T10:09:03.215Z,998.1
2019-01-30T10:10:03.362Z,998.1
2019-01-30T10:11:03.578Z,998.2
2019-01-30T10:12:03.486Z,998.2
2019-01-30T10:13:03.268Z,998.2
2019-01-30T10:14:03.027Z,998.2
2019-01-30T10:15:02.850Z,998.2
2019-01-30T10:16:03.468Z,998.3
2019-01-30T10:17:02.774Z,998.3
2019-01-30T10:18:03.209Z,998.2
2019-01-30T10:19:03.146Z,998.2
2019-01-30T10:20:03.844Z,998.1
2019-01-30T10:21:02.950Z,998.3
2019-01-30T10:22:03.238Z,998.4
2019-01-30T10:23:03.737Z,998.3
2019-01-30T10:24:03.184Z,998.3
2019-01-30T10:25:02.945Z,998.3
2019-01-30T10:26:03.233Z,998.3
2019-01-30T10:27:03.046Z,998.2
2019-01-30T10:28:03.080Z,998.2
2019-01-30T10:29:02.809Z,998.3
2019-01-30T10:30:03.271Z,998.3
2019-01-30T10:31:03.044Z,998.3
2019-01-30T10:32:03.797Z,998.3
2019-01-30T10:33:03.881Z,998.3
2019-01-30T10:34:03.805Z,998.3
2019-01-30T10:35:03.011Z,998.1
2019-01-30T10:36:03.823Z,998.1
2019-01-30T10:37:04.067Z,998.1
2019-01-30T10:38:02.966Z,998.1
2019-01-30T10:39:04.163Z,998.1
2019-01-30T10:40:03.126Z,998.1
2019-01-30T10:41:03.207Z,998.1
2019-01-30T10:42:03.587Z,998.1
2019-01-30T10:43:02.977Z,998.1
2019-01-30T10:44:03.165Z,998.1
2019-01-30T10:45:03.645Z,998.1
2019-01-30T10:46:03.371Z,998.1
2019-01-30T10:47:03.131Z,998.1
2019-01-30T10:48:02.875Z,998.1
2019-01-30T10:49:03.748Z,998.1
2019-01-30T10:50:03.665Z,998.1
2019-01-30T10:51:03.421Z,998.1
2019-01-30T10:52:03.139Z,998.1
2019-01-30T10:53:03.647Z,998.1
2019-01-30T10:54:03.778Z,998.1
2019-01-30T10:55:03.055Z,998.1
2019-01-30T10:56:03.804Z,998.1
2019-01-30T10:57:03.230Z,998.1
2019-01-30T10:58:03.557Z,998.1
2019-01-30T10:59:03.572Z,998.1
2019-01-30T11:00:03.239Z,998.1
2019-01-30T11:01:04.203Z,998.1
2019-01-30T11:02:03.595Z,998.1
2019-01-30T11:03:03.286Z,998.1
2019-01-30T11:04:03.203Z,998.2
2019-01-30T11:05:02.874Z,998.2
2019-01-30T11:06:03.678Z,998.2
2019-01-30T11:07:03.242Z,998.4
2019-01-30T11:08:03.833Z,998.3
2019-01-30T11:09:03.186Z,998.2
2019-01-30T11:10:02.950Z,998.2
2019-01-30T11:11:08.607Z,998.3
2019-01-30T11:12:02.933Z,998.4
2019-01-30T11:13:03.523Z,998.4
2019-01-30T11:14:03.554Z,998.4
2019-01-30T11:15:03.599Z,998.4
2019-01-30T11:16:03.062Z,998.5
2019-01-30T11:17:03.073Z,998.5
2019-01-30T11:18:03.669Z,998.7
2019-01-30T11:19:03.523Z,998.6
2019-01-30T11:20:03.907Z,998.6
2019-01-30T11:21:06.432Z,998.6
2019-01-30T11:22:02.931Z,998.4
2019-01-30T11:23:03.331Z,998.5
2019-01-30T11:24:03.549Z,998.4
2019-01-30T11:25:05.883Z,998.4
2019-01-30T11:26:03.515Z,998.5
2019-01-30T11:27:02.958Z,998.5
2019-01-30T11:28:03.971Z,998.5
2019-01-30T11:29:02.902Z,998.5
2019-01-30T11:30:03.199Z,998.5
2019-01-30T11:31:03.780Z,998.3
2019-01-30T11:32:03.342Z,998.3
2019-01-30T11:33:03.718Z,998.4
2019-01-30T11:34:08.295Z,998.3
2019-01-30T11:35:03.023Z,998.2
2019-01-30T11:36:02.885Z,998.4
2019-01-30T11:37:03.866Z,998.4
2019-01-30T11:38:03.138Z,998.2
2019-01-30T11:39:03.479Z,998.3
2019-01-30T11:40:03.894Z,998.3
2019-01-30T11:41:03.623Z,998.3
2019-01-30T11:42:03.628Z,998.3
2019-01-30T11:43:03.307Z,998.3
2019-01-30T11:44:03.883Z,998.3
2019-01-30T11:45:03.261Z,998.3
2019-01-30T11:46:03.425Z,998.4
2019-01-30T11:47:03.577Z,998.2
2019-01-30T11:48:03.303Z,998.3
2019-01-30T11:49:03.146Z,998.3
2019-01-30T11:50:03.524Z,998.4
2019-01-30T11:51:03.371Z,998.3
2019-01-30T11:52:02.977Z,998.5
2019-01-30T11:53:03.448Z,998.5
2019-01-30T11:54:03.661Z,998.4
2019-01-30T11:55:03.459Z,998.4
2019-01-30T11:56:03.482Z,998.4
2019-01-30T11:57:03.419Z,998.5
2019-01-30T11:58:03.061Z,998.4
2019-01-30T11:59:02.816Z,998.4
2019-01-30T12:00:03.473Z,998.3
2019-01-30T12:01:03.933Z,998.5
2019-01-30T12:02:02.830Z,998.3
2019-01-30T12:03:03.258Z,998.4
2019-01-30T12:04:02.699Z,998.3
2019-01-30T12:05:03.403Z,998.3
2019-01-30T12:06:03.312Z,998.2
2019-01-30T12:07:03.205Z,998.2
2019-01-30T12:08:03.059Z,998.2
2019-01-30T12:09:03.065Z,998.2
2019-01-30T12:10:03.231Z,998.2
2019-01-30T12:11:03.208Z,998.2
2019-01-30T12:12:03.313Z,998.2
2019-01-30T12:13:03.194Z,998.2
2019-01-30T12:14:03.046Z,998.1
2019-01-30T12:15:03.380Z,997.9
2019-01-30T12:16:03.201Z,998.1
2019-01-30T12:17:03.533Z,998
2019-01-30T12:18:02.896Z,997.9
2019-01-30T12:19:03.392Z,998
2019-01-30T12:20:03.088Z,998
2019-01-30T12:21:02.860Z,998.1
2019-01-30T12:22:03.163Z,998
2019-01-30T12:23:03.458Z,998
2019-01-30T12:24:02.914Z,998.1
2019-01-30T12:25:03.388Z,998
2019-01-30T12:26:03.203Z,998
2019-01-30T12:27:03.399Z,998
2019-01-30T12:28:03.019Z,997.9
2019-01-30T12:29:03.653Z,997.9
2019-01-30T12:30:03.867Z,997.8
2019-01-30T12:31:03.205Z,997.8
2019-01-30T12:32:02.756Z,997.9
2019-01-30T12:33:02.969Z,997.8
2019-01-30T12:34:03.183Z,997.9
2019-01-30T12:35:03.783Z,997.8
2019-01-30T12:36:03.404Z,997.7
2019-01-30T12:37:03.197Z,997.7
2019-01-30T12:38:02.882Z,997.9
2019-01-30T12:39:03.142Z,997.8
2019-01-30T12:40:03.660Z,997.8
2019-01-30T12:41:03.409Z,997.9
2019-01-30T12:42:03.476Z,997.8
2019-01-30T12:43:03.374Z,997.8
2019-01-30T12:44:03.643Z,997.7
2019-01-30T12:45:03.516Z,997.8
2019-01-30T12:46:02.984Z,997.7
2019-01-30T12:47:03.697Z,997.7
2019-01-30T12:48:03.356Z,997.8
2019-01-30T12:49:03.544Z,997.8
2019-01-30T12:50:03.603Z,997.8
2019-01-30T12:51:03.349Z,997.8
2019-01-30T12:52:03.184Z,997.7
2019-01-30T12:53:03.425Z,997.7
2019-01-30T12:54:03.733Z,997.7